createdAt,value
2018-03-22T00:01:58.529Z,60.20
2018-03-22T00:04:26.369Z,59.40
2018-03-22T00:06:53.791Z,59.90
2018-03-22T00:09:21.411Z,60.30
2018-03-22T00:11:49.463Z,61.60
2018-03-22T00:14:16.769Z,61.70
2018-03-22T00:16:44.189Z,61.50
2018-03-22T00:19:11.888Z,59.50
2018-03-22T00:21:39.168Z,58.00
2018-03-22T00:24:06.607Z,59.90
2018-03-22T00:26:34.728Z,59.90
2018-03-22T00:29:02.367Z,59.80
2018-03-22T00:31:30.528Z,61.90
2018-03-22T00:33:57.926Z,61.90
2018-03-22T00:36:25.245Z,65.30
2018-03-22T00:38:53.013Z,58.10
2018-03-22T00:41:20.365Z,60.00
2018-03-22T00:43:48.145Z,57.80
2018-03-22T00:46:15.466Z,62.20
2018-03-22T00:48:42.825Z,62.60
2018-03-22T00:51:10.246Z,62.90
2018-03-22T00:53:37.565Z,61.30
2018-03-22T00:56:04.888Z,61.20
2018-03-22T00:58:32.605Z,60.20
2018-03-22T01:03:31.526Z,61.90
2018-03-22T01:05:58.914Z,63.70
2018-03-22T01:08:26.369Z,66.10
2018-03-22T01:10:53.806Z,69.00
2018-03-22T01:13:21.167Z,66.70
2018-03-22T01:15:48.587Z,64.00
2018-03-22T01:18:17.187Z,63.20
2018-03-22T01:20:45.422Z,64.70
2018-03-22T01:23:13.580Z,62.40
2018-03-22T01:25:40.946Z,62.40
2018-03-22T01:28:08.295Z,62.80
2018-03-22T01:30:36.555Z,64.00
2018-03-22T01:33:03.986Z,63.60
2018-03-22T01:35:31.407Z,63.10
2018-03-22T01:37:58.827Z,64.10
2018-03-22T01:40:27.206Z,69.00
2018-03-22T01:42:54.586Z,68.90
2018-03-22T01:45:22.649Z,64.00
2018-03-22T01:47:50.007Z,64.00
2018-03-22T01:50:18.488Z,66.00
2018-03-22T01:55:25.368Z,66.00
2018-03-22T01:57:52.787Z,66.00
2018-03-22T02:00:19.996Z,64.10
2018-03-22T02:02:47.328Z,66.10
2018-03-22T02:05:14.826Z,67.80
2018-03-22T02:07:42.168Z,66.70
2018-03-22T02:10:09.907Z,68.10
2018-03-22T02:12:37.309Z,64.20
2018-03-22T02:15:04.766Z,67.70
2018-03-22T02:17:33.073Z,65.30
2018-03-22T02:20:00.669Z,65.30
2018-03-22T02:22:28.026Z,65.60
2018-03-22T02:24:55.646Z,66.30
2018-03-22T02:27:24.038Z,70.00
2018-03-22T02:29:51.649Z,70.00
2018-03-22T02:32:18.889Z,70.70
2018-03-22T02:34:46.367Z,70.80
2018-03-22T02:37:14.187Z,65.50
2018-03-22T02:39:41.568Z,65.20
2018-03-22T02:42:08.927Z,68.50
2018-03-22T02:44:36.453Z,66.70
2018-03-22T02:47:03.966Z,65.00
2018-03-22T02:49:31.447Z,66.30
2018-03-22T02:51:58.788Z,69.70
2018-03-22T02:54:26.526Z,71.10
2018-03-22T02:56:53.967Z,72.20
2018-03-22T02:59:21.386Z,71.80
2018-03-22T03:01:49.726Z,72.40
2018-03-22T03:04:18.050Z,72.40
2018-03-22T03:06:45.366Z,72.40
2018-03-22T03:09:13.125Z,72.00
2018-03-22T03:11:40.485Z,71.40
2018-03-22T03:14:08.625Z,64.40
2018-03-22T03:16:36.033Z,64.40
2018-03-22T03:19:04.006Z,67.60
2018-03-22T03:21:31.345Z,70.20
2018-03-22T03:23:58.725Z,71.60
2018-03-22T03:26:26.205Z,72.60
2018-03-22T03:28:53.565Z,73.20
2018-03-22T03:31:21.066Z,72.20
2018-03-22T03:33:48.630Z,71.80
2018-03-22T03:36:16.786Z,72.70
2018-03-22T03:38:44.125Z,72.00
2018-03-22T03:41:11.606Z,71.80
2018-03-22T03:43:38.885Z,73.30
2018-03-22T03:46:06.545Z,74.10
2018-03-22T03:48:34.525Z,74.00
2018-03-22T03:51:01.805Z,74.00
2018-03-22T03:53:29.165Z,73.80
2018-03-22T03:55:58.045Z,73.30
2018-03-22T03:58:25.444Z,73.50
2018-03-22T04:00:52.807Z,73.70
2018-03-22T04:03:20.207Z,73.80
2018-03-22T04:05:47.511Z,74.00
2018-03-22T04:08:14.867Z,73.50
2018-03-22T04:10:42.526Z,74.00
2018-03-22T04:13:10.286Z,74.30
2018-03-22T04:15:37.706Z,74.20
2018-03-22T04:18:05.387Z,74.30
2018-03-22T04:20:32.807Z,74.80
2018-03-22T04:23:00.127Z,75.00
2018-03-22T04:25:27.886Z,74.90
2018-03-22T04:27:55.445Z,74.50
2018-03-22T04:30:23.006Z,74.30
2018-03-22T04:32:50.386Z,74.10
2018-03-22T04:35:17.906Z,74.60
2018-03-22T04:37:45.346Z,74.90
2018-03-22T04:40:12.725Z,75.90
2018-03-22T04:42:40.169Z,75.80
2018-03-22T04:45:09.729Z,73.80
2018-03-22T04:47:37.188Z,73.80
2018-03-22T04:50:04.547Z,73.70
2018-03-22T04:52:31.966Z,74.50
2018-03-22T04:54:59.486Z,74.60
2018-03-22T04:57:26.986Z,74.80
2018-03-22T04:59:54.406Z,74.80
2018-03-22T05:02:21.759Z,73.90
2018-03-22T05:04:49.251Z,73.90
2018-03-22T05:07:16.732Z,75.40
2018-03-22T05:09:44.012Z,76.00
2018-03-22T05:12:11.811Z,76.50
2018-03-22T05:14:39.851Z,75.50
2018-03-22T05:17:08.133Z,74.90
2018-03-22T05:19:35.511Z,74.90
2018-03-22T05:22:03.011Z,73.20
2018-03-22T05:24:31.331Z,65.10
2018-03-22T05:26:58.731Z,65.00
2018-03-22T05:29:26.231Z,61.00
2018-03-22T05:31:53.591Z,57.50
2018-03-22T05:34:21.030Z,56.40
2018-03-22T05:36:48.591Z,55.80
2018-03-22T05:39:15.992Z,54.50
2018-03-22T05:41:43.287Z,55.00
2018-03-22T05:44:11.585Z,52.20
2018-03-22T05:46:38.965Z,52.80
2018-03-22T05:49:06.786Z,52.20
2018-03-22T05:51:34.111Z,52.70
2018-03-22T05:54:02.305Z,51.10
2018-03-22T05:56:29.904Z,50.50
2018-03-22T05:58:58.205Z,51.60
2018-03-22T06:01:25.532Z,51.60
2018-03-22T06:03:52.836Z,51.30
2018-03-22T06:06:20.447Z,50.80
2018-03-22T06:08:48.569Z,49.90
2018-03-22T06:11:16.028Z,49.80
2018-03-22T06:13:43.565Z,52.30
2018-03-22T06:16:11.165Z,53.80
2018-03-22T06:21:10.065Z,53.50
2018-03-22T06:23:37.725Z,55.80
2018-03-22T06:26:05.786Z,54.00
2018-03-22T06:28:33.865Z,53.20
2018-03-22T06:31:02.485Z,52.70
2018-03-22T06:33:30.406Z,52.60
2018-03-22T06:35:58.285Z,52.70
2018-03-22T06:38:25.565Z,50.90
2018-03-22T06:40:53.685Z,50.00
2018-03-22T06:43:20.945Z,50.00
2018-03-22T06:45:49.345Z,51.20
2018-03-22T06:48:16.844Z,51.20
2018-03-22T06:51:44.265Z,51.70
2018-03-22T06:54:11.625Z,50.20
2018-03-22T06:56:39.409Z,50.60
2018-03-22T06:59:07.104Z,48.70
2018-03-22T07:01:34.367Z,47.20
2018-03-22T07:04:03.167Z,48.30
2018-03-22T07:06:31.027Z,48.70
2018-03-22T07:08:58.869Z,51.70
2018-03-22T07:11:26.213Z,52.10
2018-03-22T07:13:54.074Z,50.20
2018-03-22T07:16:24.085Z,50.60
2018-03-22T07:18:51.495Z,50.10
2018-03-22T07:21:19.266Z,48.80
2018-03-22T07:23:47.086Z,46.40
2018-03-22T07:26:15.000Z,47.80
2018-03-22T07:28:43.668Z,44.00
2018-03-22T07:31:11.725Z,44.00
2018-03-22T07:33:40.326Z,43.00
2018-03-22T07:36:08.166Z,42.90
2018-03-22T07:38:35.626Z,43.50
2018-03-22T07:41:03.146Z,41.90
2018-03-22T07:43:36.226Z,44.20
2018-03-22T07:46:03.526Z,42.90
2018-03-22T07:48:31.011Z,41.70
2018-03-22T07:50:58.386Z,41.60
2018-03-22T07:53:26.588Z,42.00
2018-03-22T07:55:54.146Z,39.40
2018-03-22T07:58:21.549Z,40.50
2018-03-22T08:00:48.925Z,41.00
2018-03-22T08:03:17.987Z,41.40
2018-03-22T08:05:45.452Z,40.10
2018-03-22T08:08:12.767Z,37.60
2018-03-22T08:10:40.149Z,35.80
2018-03-22T08:13:07.686Z,35.40
2018-03-22T08:15:34.953Z,37.20
2018-03-22T08:18:03.186Z,34.80
2018-03-22T08:20:31.012Z,34.80
2018-03-22T08:22:59.167Z,35.70
2018-03-22T08:25:26.505Z,35.60
2018-03-22T08:27:54.026Z,37.70
2018-03-22T08:30:22.367Z,39.00
2018-03-22T08:32:49.708Z,38.90
2018-03-22T08:35:17.407Z,39.70
2018-03-22T08:37:45.066Z,41.30
2018-03-22T08:40:13.126Z,44.00
2018-03-22T08:42:40.426Z,44.10
2018-03-22T08:45:08.267Z,43.50
2018-03-22T08:47:35.646Z,44.50
2018-03-22T08:50:02.946Z,43.90
2018-03-22T08:52:30.526Z,46.00
2018-03-22T08:54:57.867Z,45.00
2018-03-22T08:57:25.348Z,44.20
2018-03-22T08:59:53.507Z,44.00
2018-03-22T09:02:20.828Z,44.00
2018-03-22T09:04:48.206Z,43.80
2018-03-22T09:07:15.666Z,46.00
2018-03-22T09:09:42.951Z,45.90
2018-03-22T09:12:11.266Z,46.40
2018-03-22T09:14:38.726Z,46.40
2018-03-22T09:17:06.069Z,46.30
2018-03-22T09:19:33.546Z,47.40
2018-03-22T09:22:01.306Z,51.40
2018-03-22T09:24:28.786Z,48.30
2018-03-22T09:27:01.826Z,47.50
2018-03-22T09:29:29.427Z,45.90
2018-03-22T09:31:57.086Z,48.20
2018-03-22T09:34:24.506Z,46.50
2018-03-22T09:36:52.066Z,42.60
2018-03-22T09:39:19.366Z,45.70
2018-03-22T09:41:46.627Z,44.60
2018-03-22T09:44:14.027Z,47.30
2018-03-22T09:46:41.886Z,45.90
2018-03-22T09:49:09.346Z,48.30
2018-03-22T09:51:36.826Z,44.30
2018-03-22T09:54:04.146Z,45.70
2018-03-22T09:56:31.607Z,44.90
2018-03-22T09:58:59.630Z,41.90
2018-03-22T10:01:28.146Z,48.50
2018-03-22T10:03:56.046Z,48.50
2018-03-22T10:06:24.707Z,46.90
2018-03-22T10:08:52.447Z,46.70
2018-03-22T10:11:20.546Z,44.10
2018-03-22T10:13:48.456Z,43.70
2018-03-22T10:16:16.307Z,44.00
2018-03-22T10:18:44.227Z,47.30
2018-03-22T10:21:12.186Z,48.50
2018-03-22T10:23:40.046Z,49.30
2018-03-22T10:26:08.086Z,49.00
2018-03-22T10:28:35.886Z,46.50
2018-03-22T10:31:03.633Z,46.90
2018-03-22T10:33:31.615Z,43.90
2018-03-22T10:35:59.325Z,47.00
2018-03-22T10:38:28.377Z,47.60
2018-03-22T10:40:56.927Z,46.80
2018-03-22T10:43:24.868Z,46.80
2018-03-22T10:45:53.014Z,44.30
2018-03-22T10:48:21.798Z,48.60
2018-03-22T10:53:23.488Z,45.40
2018-03-22T10:55:51.246Z,45.50
2018-03-22T10:58:19.386Z,44.90
2018-03-22T11:00:52.816Z,44.80
2018-03-22T11:03:26.318Z,48.50
2018-03-22T11:05:54.227Z,50.60
2018-03-22T11:08:22.067Z,48.10
2018-03-22T11:10:49.572Z,47.50
2018-03-22T11:13:17.048Z,46.30
2018-03-22T11:15:44.549Z,45.40
2018-03-22T11:18:11.950Z,48.40
2018-03-22T11:20:39.575Z,48.00
2018-03-22T11:23:08.236Z,47.40
2018-03-22T11:25:36.106Z,47.40
2018-03-22T11:28:03.968Z,46.00
2018-03-22T11:30:32.194Z,46.00
2018-03-22T11:35:32.148Z,47.60
2018-03-22T11:38:00.075Z,44.80
2018-03-22T11:40:28.127Z,43.00
2018-03-22T11:42:56.067Z,44.00
2018-03-22T11:45:23.453Z,45.90
2018-03-22T11:47:50.806Z,43.90
2018-03-22T11:50:18.334Z,42.80
2018-03-22T11:52:45.725Z,45.30
2018-03-22T11:55:13.167Z,47.20
2018-03-22T11:57:41.088Z,45.40
2018-03-22T12:00:08.927Z,44.30
2018-03-22T12:02:36.454Z,44.90
2018-03-22T12:05:03.827Z,47.30
2018-03-22T12:07:31.147Z,46.40
2018-03-22T12:09:59.807Z,47.70
2018-03-22T12:12:27.372Z,47.80
2018-03-22T12:14:54.686Z,47.50
2018-03-22T12:17:22.388Z,47.80
2018-03-22T12:19:49.909Z,46.70
2018-03-22T12:22:17.252Z,47.70
2018-03-22T12:24:44.766Z,49.40
2018-03-22T12:27:12.286Z,44.90
2018-03-22T12:29:40.125Z,44.90
2018-03-22T12:32:08.166Z,44.20
2018-03-22T12:34:35.485Z,45.70
2018-03-22T12:37:02.907Z,43.20
2018-03-22T12:39:30.452Z,44.00
2018-03-22T12:41:57.787Z,44.70
2018-03-22T12:44:25.447Z,46.60
2018-03-22T12:46:53.073Z,45.90
2018-03-22T12:49:20.505Z,46.70
2018-03-22T12:51:47.807Z,46.90
2018-03-22T12:54:15.930Z,46.60
2018-03-22T12:56:43.609Z,46.50
2018-03-22T12:59:11.013Z,48.30
2018-03-22T13:01:38.468Z,49.10
2018-03-22T13:04:05.728Z,47.50
2018-03-22T13:06:33.249Z,45.10
2018-03-22T13:09:01.068Z,48.70
2018-03-22T13:11:29.258Z,45.70
2018-03-22T13:13:56.696Z,43.00
2018-03-22T13:16:24.310Z,43.20
2018-03-22T13:18:51.716Z,44.00
2018-03-22T13:21:19.007Z,44.90
2018-03-22T13:23:46.520Z,44.40
2018-03-22T13:26:13.915Z,44.50
2018-03-22T13:28:41.505Z,45.90
2018-03-22T13:31:09.367Z,48.50
2018-03-22T13:33:37.247Z,45.90
2018-03-22T13:36:04.608Z,44.80
2018-03-22T13:38:32.033Z,42.40
2018-03-22T13:40:59.380Z,42.10
2018-03-22T13:43:27.634Z,42.70
2018-03-22T13:45:55.293Z,42.70
2018-03-22T13:48:23.675Z,42.60
2018-03-22T13:50:51.225Z,42.60
2018-03-22T13:53:19.428Z,45.50
2018-03-22T13:55:47.944Z,43.70
2018-03-22T13:58:15.342Z,43.60
2018-03-22T14:00:42.772Z,44.30
2018-03-22T14:03:11.011Z,45.20
2018-03-22T14:05:38.991Z,45.20
2018-03-22T14:08:06.896Z,45.50
2018-03-22T14:10:34.711Z,44.10
2018-03-22T14:13:02.691Z,44.20
2018-03-22T14:15:31.606Z,44.60
2018-03-22T14:18:32.905Z,42.40
2018-03-22T14:21:00.294Z,44.00
2018-03-22T14:23:27.836Z,44.10
2018-03-22T14:25:55.406Z,43.00
2018-03-22T14:28:22.786Z,43.70
2018-03-22T14:30:50.526Z,42.90
2018-03-22T14:33:18.266Z,42.90
2018-03-22T14:35:46.466Z,44.70
2018-03-22T14:38:13.886Z,44.70
2018-03-22T14:40:41.835Z,44.60
2018-03-22T14:43:09.268Z,45.60
2018-03-22T14:45:36.827Z,44.70
2018-03-22T14:48:04.467Z,43.80
2018-03-22T14:50:32.030Z,44.10
2018-03-22T14:52:59.566Z,43.00
2018-03-22T14:55:27.006Z,43.70
2018-03-22T14:57:55.334Z,44.10
2018-03-22T15:00:22.551Z,44.10
2018-03-22T15:02:49.907Z,43.80
2018-03-22T15:05:17.325Z,43.20
2018-03-22T15:07:44.927Z,43.20
2018-03-22T15:10:12.448Z,43.50
2018-03-22T15:12:39.845Z,44.10
2018-03-22T15:15:07.226Z,44.50
2018-03-22T15:17:34.926Z,44.70
2018-03-22T15:20:02.226Z,44.80
2018-03-22T15:22:30.367Z,45.90
2018-03-22T15:24:58.167Z,45.60
2018-03-22T15:27:25.687Z,45.10
2018-03-22T15:29:53.146Z,43.20
2018-03-22T15:32:20.528Z,44.30
2018-03-22T15:34:48.589Z,44.50
2018-03-22T15:37:16.047Z,42.90
2018-03-22T15:39:44.026Z,42.80
2018-03-22T15:42:11.946Z,45.60
2018-03-22T15:44:39.626Z,46.40
2018-03-22T15:47:08.572Z,46.10
2018-03-22T15:49:36.326Z,46.60
2018-03-22T15:52:04.134Z,45.90
2018-03-22T15:54:31.605Z,45.90
2018-03-22T15:57:02.707Z,45.90
2018-03-22T15:59:30.848Z,45.70
2018-03-22T16:01:58.626Z,45.70
2018-03-22T16:04:25.925Z,45.50
2018-03-22T16:06:54.574Z,45.90
2018-03-22T16:09:22.765Z,45.90
2018-03-22T16:11:50.825Z,46.20
2018-03-22T16:14:18.806Z,46.40
2018-03-22T16:16:46.906Z,46.70
2018-03-22T16:19:14.345Z,46.70
2018-03-22T16:21:42.545Z,46.20
2018-03-22T16:24:09.985Z,46.20
2018-03-22T16:26:37.408Z,46.50
2018-03-22T16:29:04.885Z,46.80
2018-03-22T16:31:32.326Z,47.60
2018-03-22T16:33:59.731Z,47.70
2018-03-22T16:36:27.486Z,47.90
2018-03-22T16:38:55.225Z,47.40
2018-03-22T16:41:22.546Z,47.10
2018-03-22T16:43:50.186Z,47.10
2018-03-22T16:46:18.406Z,47.10
2018-03-22T16:48:46.085Z,47.10
2018-03-22T16:51:13.662Z,47.90
2018-03-22T16:53:41.543Z,48.00
2018-03-22T16:56:09.262Z,48.10
2018-03-22T16:58:36.824Z,48.00
2018-03-22T17:01:05.097Z,49.00
2018-03-22T17:03:34.107Z,48.90
2018-03-22T17:06:01.496Z,48.90
2018-03-22T17:08:29.777Z,49.20
2018-03-22T17:10:57.218Z,49.30
2018-03-22T17:13:25.112Z,49.30
2018-03-22T17:15:53.251Z,49.40
2018-03-22T17:18:21.152Z,49.40
2018-03-22T17:20:49.111Z,49.70
2018-03-22T17:23:17.050Z,50.20
2018-03-22T17:25:44.868Z,50.20
2018-03-22T17:28:13.067Z,50.10
2018-03-22T17:30:40.968Z,50.60
2018-03-22T17:33:08.890Z,50.90
2018-03-22T17:35:36.288Z,51.00
2018-03-22T17:38:03.808Z,50.90
2018-03-22T17:40:31.310Z,51.00
2018-03-22T17:42:58.859Z,51.10
2018-03-22T17:45:26.492Z,51.00
2018-03-22T17:47:54.687Z,51.10
2018-03-22T17:50:23.450Z,51.30
2018-03-22T17:52:51.047Z,51.30
2018-03-22T17:55:18.627Z,51.30
2018-03-22T17:57:46.053Z,51.60
2018-03-22T18:00:15.293Z,51.80
2018-03-22T18:02:42.808Z,52.00
2018-03-22T18:05:11.228Z,51.90
2018-03-22T18:07:38.852Z,51.80
2018-03-22T18:10:06.301Z,51.70
2018-03-22T18:12:35.065Z,51.50
2018-03-22T18:15:02.345Z,51.40
2018-03-22T18:17:29.769Z,51.40
2018-03-22T18:19:58.688Z,51.80
2018-03-22T18:22:27.708Z,51.90
2018-03-22T18:24:55.607Z,52.10
2018-03-22T18:27:23.027Z,52.40
2018-03-22T18:29:50.500Z,52.40
2018-03-22T18:32:18.936Z,52.60
2018-03-22T18:34:46.430Z,52.70
2018-03-22T18:37:14.708Z,52.50
2018-03-22T18:39:42.286Z,52.50
2018-03-22T18:42:09.648Z,52.90
2018-03-22T18:44:37.408Z,52.90
2018-03-22T18:47:04.848Z,52.80
2018-03-22T18:49:32.289Z,52.60
2018-03-22T18:51:59.807Z,52.90
2018-03-22T18:54:27.987Z,52.00
2018-03-22T18:56:56.188Z,52.10
2018-03-22T18:59:23.527Z,52.10
2018-03-22T19:01:50.929Z,51.90
2018-03-22T19:04:18.707Z,51.70
2018-03-22T19:06:46.296Z,52.20
2018-03-22T19:09:13.890Z,52.50
2018-03-22T19:11:41.288Z,51.90
2018-03-22T19:14:08.786Z,52.10
2018-03-22T19:16:36.926Z,54.50
2018-03-22T19:19:04.286Z,54.50
2018-03-22T19:21:31.858Z,54.90
2018-03-22T19:23:59.371Z,56.60
2018-03-22T19:26:27.088Z,54.90
2018-03-22T19:28:54.487Z,54.60
2018-03-22T19:31:22.209Z,55.60
2018-03-22T19:33:49.667Z,55.70
2018-03-22T19:36:17.306Z,55.80
2018-03-22T19:38:44.768Z,56.00
2018-03-22T19:41:12.097Z,55.60
2018-03-22T19:43:39.657Z,56.80
2018-03-22T19:46:07.268Z,57.50
2018-03-22T19:48:34.846Z,57.60
2018-03-22T19:51:03.249Z,57.60
2018-03-22T19:53:31.327Z,57.90
2018-03-22T19:55:58.919Z,57.90
2018-03-22T19:58:26.410Z,58.30
2018-03-22T20:00:54.520Z,58.90
2018-03-22T20:03:39.750Z,58.60
2018-03-22T20:06:09.199Z,59.60
2018-03-22T20:08:37.415Z,60.40
2018-03-22T20:11:04.646Z,60.40
2018-03-22T20:13:32.555Z,60.40
2018-03-22T20:16:00.668Z,60.20
2018-03-22T20:18:28.771Z,60.00
2018-03-22T20:20:56.918Z,60.60
2018-03-22T20:23:24.371Z,60.60
2018-03-22T20:25:51.835Z,60.00
2018-03-22T20:28:19.268Z,59.80
2018-03-22T20:30:47.029Z,60.00
2018-03-22T20:33:14.914Z,61.20
2018-03-22T20:35:42.797Z,61.80
2018-03-22T20:38:10.559Z,60.80
2018-03-22T20:40:39.769Z,61.00
2018-03-22T20:43:07.324Z,60.90
2018-03-22T20:45:34.820Z,61.60
2018-03-22T20:48:02.340Z,61.30
2018-03-22T20:50:30.078Z,61.30
2018-03-22T20:52:57.997Z,61.20
2018-03-22T20:55:25.799Z,61.10
2018-03-22T20:57:53.289Z,61.00
2018-03-22T21:00:21.309Z,60.50
2018-03-22T21:02:48.895Z,60.50
2018-03-22T21:05:17.412Z,60.40
2018-03-22T21:07:45.571Z,60.20
2018-03-22T21:10:13.428Z,60.10
2018-03-22T21:12:40.912Z,60.00
2018-03-22T21:15:09.407Z,60.10
2018-03-22T21:17:36.845Z,60.10
2018-03-22T21:20:05.092Z,60.50
2018-03-22T21:22:32.871Z,60.30
2018-03-22T21:25:00.171Z,60.10
2018-03-22T21:27:28.331Z,61.30
2018-03-22T21:29:55.792Z,61.30
2018-03-22T21:32:23.191Z,58.50
2018-03-22T21:34:50.851Z,57.50
2018-03-22T21:37:19.353Z,56.70
2018-03-22T21:39:47.097Z,56.70
2018-03-22T21:42:14.461Z,56.80
2018-03-22T21:44:42.192Z,56.90
2018-03-22T21:47:15.520Z,57.30
2018-03-22T21:49:44.012Z,59.40
2018-03-22T21:52:17.310Z,59.30
2018-03-22T21:54:44.823Z,59.20
2018-03-22T21:57:12.148Z,60.10
2018-03-22T21:59:40.332Z,60.70
2018-03-22T22:02:08.017Z,60.60
2018-03-22T22:04:35.410Z,60.50
2018-03-22T22:07:02.728Z,60.90
2018-03-22T22:09:30.187Z,62.00
2018-03-22T22:11:57.707Z,61.90
2018-03-22T22:14:25.570Z,61.50
2018-03-22T22:16:53.051Z,61.90
2018-03-22T22:19:20.926Z,62.40
2018-03-22T22:21:48.369Z,63.00
2018-03-22T22:24:15.851Z,63.20
2018-03-22T22:26:43.388Z,64.20
2018-03-22T22:29:10.730Z,64.90
2018-03-22T22:31:38.374Z,65.30
2018-03-22T22:34:06.608Z,64.60
2018-03-22T22:36:34.108Z,64.60
2018-03-22T22:39:01.729Z,64.80
2018-03-22T22:41:29.876Z,65.00
2018-03-22T22:43:57.408Z,64.90
2018-03-22T22:46:25.569Z,64.30
2018-03-22T22:48:53.089Z,63.90
2018-03-22T22:51:21.570Z,64.30
2018-03-22T22:53:49.111Z,64.30
2018-03-22T22:56:16.648Z,65.10
2018-03-22T22:58:44.127Z,64.80
2018-03-22T23:01:12.431Z,64.60
2018-03-22T23:03:40.095Z,64.60
2018-03-22T23:06:07.537Z,64.70
2018-03-22T23:08:34.971Z,65.00
2018-03-22T23:11:03.592Z,60.50
2018-03-22T23:13:31.232Z,60.50
2018-03-22T23:15:58.980Z,61.30
2018-03-22T23:18:27.172Z,63.00
2018-03-22T23:20:54.879Z,62.90
2018-03-22T23:23:22.672Z,63.20
2018-03-22T23:25:50.313Z,63.10
2018-03-22T23:28:18.152Z,64.30
2018-03-22T23:30:45.571Z,65.40
2018-03-22T23:33:13.252Z,64.50
2018-03-22T23:35:40.892Z,64.30
2018-03-22T23:38:09.091Z,63.80
2018-03-22T23:40:37.411Z,64.50
2018-03-22T23:43:05.052Z,64.10
2018-03-22T23:45:32.511Z,65.50
2018-03-22T23:48:00.612Z,66.00
2018-03-22T23:50:28.069Z,66.10
2018-03-22T23:52:55.687Z,65.50
2018-03-22T23:55:23.108Z,69.00
2018-03-22T23:57:50.648Z,71.40
